Mystic Blue — SVA7348 — position and weather

sailwx.info

Track history (hours):
 
Tides and Currents Weather Stations Pressure Air Temp Water Temp Dewpoint Dewpoint Depression Visibility Wind Speed Wind Dir Waves Ship Positions

Mystic Blue

Last reported at 2018-May-26 15:50 UTC. Time now 2018-Aug-16 07:59 UTC.
Position N 37°47' E 023°44'.
Warning: this ship's position is months out of date.

Length 12 m.

Type: Pleasure craft. MMSI: 239989200.

Date/timePositionNaut miles runAvg speedWind from/ knotsBaromVisibWave heightAir tempDewpointWater temp
2018-May-26 15:50N 37°47' E 023°44'2 6.7
2018-May-26 15:30N 37°49' E 023°43'3 7.1
2018-May-26 15:00N 37°52' E 023°42'1 2.6
2018-May-26 14:30N 37°53' E 023°42'2 0.1
2018-May-25 15:55N 37°55' E 023°42'0 0.0
2018-May-25 12:58N 37°55' E 023°42'0 0.0
2018-May-25 12:28N 37°55' E 023°42'0 0.0
2018-May-25 11:58N 37°55' E 023°42'0 0.0
2018-May-25 11:30N 37°55' E 023°42'0 0.0
2018-May-25 11:00N 37°55' E 023°42'0 0.0
2018-May-25 10:30N 37°55' E 023°42'0 0.0
2018-May-25 10:00N 37°55' E 023°42'0 0.0
2018-May-25 09:30N 37°55' E 023°42'0 0.0
2018-May-25 09:00N 37°55' E 023°42'0 0.0
2018-May-25 08:30N 37°55' E 023°42'3 5.4
2018-May-25 08:00N 37°54' E 023°39'4 7.3
2018-May-25 07:30N 37°53' E 023°34'3 6.5
2018-May-25 07:00N 37°53' E 023°30'5 5.8
2018-May-25 06:07N 37°54' E 023°24'1 7.7
2018-May-25 05:59N 37°55' E 023°24'4 7.2
2018-May-25 05:29N 37°57' E 023°28'1 2.4
2018-May-25 04:58N 37°58' E 023°30'0 0.0
2018-May-25 04:30N 37°58' E 023°30'0 0.0
2018-May-25 03:57N 37°58' E 023°30'0 0.0
2018-May-25 03:30N 37°58' E 023°30'0 0.0
2018-May-25 03:00N 37°58' E 023°30'0 0.0
2018-May-25 02:24N 37°58' E 023°30'0 0.0
2018-May-25 01:57N 37°58' E 023°30'0 0.0
2018-May-25 01:30N 37°58' E 023°30'0 0.0
2018-May-25 01:00N 37°58' E 023°30'0 0.0
2018-May-25 00:30N 37°58' E 023°30'0 0.0
2018-May-25 00:00N 37°58' E 023°30'0 0.0
2018-May-24 23:29N 37°58' E 023°30'0 0.0
2018-May-24 22:59N 37°58' E 023°30'0 0.0
2018-May-24 22:29N 37°58' E 023°30'0 0.0
2018-May-24 21:56N 37°58' E 023°30'0 0.0
2018-May-24 21:30N 37°58' E 023°30'0 0.0
2018-May-24 20:54N 37°58' E 023°30'0 0.0
2018-May-24 20:29N 37°58' E 023°30'0 0.0
2018-May-24 19:59N 37°58' E 023°30'0 0.0
2018-May-24 19:20N 37°58' E 023°30'0 0.0
2018-May-24 19:00N 37°58' E 023°30'0 0.0
2018-May-24 18:26N 37°58' E 023°30'0 0.0
2018-May-24 17:41N 37°58' E 023°30'0 0.0
2018-May-24 17:26N 37°58' E 023°30'0 0.0
2018-May-24 16:56N 37°58' E 023°30'0 0.0
2018-May-24 16:26N 37°58' E 023°30'0 0.0
2018-May-24 15:59N 37°58' E 023°30'0 0.0
2018-May-24 15:26N 37°58' E 023°30'0 0.0
2018-May-24 14:56N 37°58' E 023°30'0 0.0
2018-May-24 14:29N 37°58' E 023°30'0 0.0
2018-May-24 13:59N 37°58' E 023°30'0 0.0
2018-May-24 08:56N 37°58' E 023°30'0 0.0
2018-May-24 08:26N 37°58' E 023°30'0 0.0
2018-May-24 07:41N 37°58' E 023°30'0 0.0
2018-May-24 07:20N 37°58' E 023°30'0 0.0
2018-May-24 06:59N 37°58' E 023°30'0 0.0
2018-May-24 06:30N 37°58' E 023°30'0 0.0
2018-May-24 05:58N 37°58' E 023°30'0 0.0
2018-May-24 05:29N 37°58' E 023°30'0 0.0
2018-May-24 04:56N 37°58' E 023°30'0 0.0
2018-May-24 04:29N 37°58' E 023°30'0 0.0
2018-May-24 03:58N 37°58' E 023°30'0 0.0
2018-May-24 03:19N 37°58' E 023°30'0 0.0
2018-May-24 02:55N 37°58' E 023°30'0 0.0
2018-May-24 02:22N 37°58' E 023°30'0 0.0
2018-May-24 01:58N 37°58' E 023°30'0 0.0
2018-May-24 01:25N 37°58' E 023°30'0 0.0
2018-May-24 00:49N 37°58' E 023°30'0 0.0
2018-May-24 00:21N 37°58' E 023°30'0 0.0
2018-May-23 23:54N 37°58' E 023°30'0 0.0
2018-May-23 23:27N 37°58' E 023°30'0 0.0
2018-May-23 23:00N 37°58' E 023°30'0 0.0
2018-May-23 22:24N 37°58' E 023°30'0 0.0
2018-May-23 21:51N 37°58' E 023°30'0 0.0
2018-May-23 21:27N 37°58' E 023°30'0 0.0
2018-May-23 20:54N 37°58' E 023°30'0 0.0
2018-May-23 20:27N 37°58' E 023°30'0 0.0
2018-May-23 20:00N 37°58' E 023°30'0 0.0
2018-May-23 19:30N 37°58' E 023°30'0 0.0
2018-May-23 19:00N 37°58' E 023°30'0 0.0
2018-May-23 18:30N 37°58' E 023°30'0 0.0
2018-May-23 18:00N 37°58' E 023°30'0 0.0
2018-May-23 17:09N 37°58' E 023°30'0 0.0
2018-May-23 17:00N 37°58' E 023°30'0 0.0
2018-May-23 16:24N 37°58' E 023°30'0 0.0
2018-May-23 15:57N 37°58' E 023°30'0 0.0
2018-May-23 15:27N 37°58' E 023°30'0 0.0
2018-May-23 15:00N 37°58' E 023°30'0 0.0
2018-May-23 14:28N 37°58' E 023°30'0 0.0
2018-May-23 13:57N 37°58' E 023°30'0 0.0
2018-May-23 13:30N 37°58' E 023°30'0 0.0
2018-May-23 13:01N 37°58' E 023°30'0 0.0
2018-May-23 12:28N 37°58' E 023°30'0 0.0
2018-May-23 11:48N 37°58' E 023°30'0 0.0
2018-May-23 11:24N 37°58' E 023°30'0 0.0
2018-May-23 11:00N 37°58' E 023°30'0 0.0
2018-May-23 10:30N 37°58' E 023°30'0 0.0
2018-May-23 10:00N 37°58' E 023°30'0 0.0
2018-May-23 09:24N 37°58' E 023°30'0 0.0
2018-May-23 09:00N 37°58' E 023°30'0 0.0
2018-May-23 08:29N 37°58' E 023°30'0 0.0
2018-May-23 08:00N 37°58' E 023°30'0 0.0
2018-May-23 07:27N 37°58' E 023°30'0 0.0
2018-May-23 06:57N 37°58' E 023°30'0 0.0
2018-May-23 06:30N 37°58' E 023°30'0 0.0
2018-May-23 05:51N 37°58' E 023°30'0 0.0
2018-May-23 05:30N 37°58' E 023°30'0 0.0
2018-May-23 04:57N 37°58' E 023°30'0 0.0
2018-May-23 04:28N 37°58' E 023°30'0 0.0
2018-May-23 04:00N 37°58' E 023°30'0 0.0
2018-May-23 03:30N 37°58' E 023°30'0 0.0
2018-May-23 03:00N 37°58' E 023°30'0 0.0
2018-May-23 02:30N 37°58' E 023°30'0 0.0
2018-May-23 02:00N 37°58' E 023°30'0 0.0
2018-May-23 01:20N 37°58' E 023°30'0 0.0
2018-May-23 00:55N 37°58' E 023°30'0 0.0
2018-May-23 00:29N 37°58' E 023°30'0 0.0
2018-May-22 23:59N 37°58' E 023°30'0 0.0
2018-May-22 23:29N 37°58' E 023°30'0 0.0
2018-May-22 22:59N 37°58' E 023°30'0 0.0
2018-May-22 22:26N 37°58' E 023°30'0 0.0
2018-May-22 21:53N 37°58' E 023°30'0 0.0
2018-May-22 21:29N 37°58' E 023°30'0 0.0
2018-May-22 20:59N 37°58' E 023°30'0 0.0
2018-May-22 20:26N 37°58' E 023°30'0 0.0
2018-May-22 19:59N 37°58' E 023°30'0 0.0
2018-May-22 19:20N 37°58' E 023°30'0 0.0
2018-May-22 18:59N 37°58' E 023°30'0 0.0
2018-May-22 18:23N 37°58' E 023°30'0 0.0
2018-May-22 17:50N 37°58' E 023°30'0 0.0
2018-May-22 17:26N 37°58' E 023°30'0 0.0
2018-May-22 16:56N 37°58' E 023°30'0 0.0
2018-May-22 16:23N 37°58' E 023°30'0 0.0
2018-May-22 15:59N 37°58' E 023°30'0 0.0
2018-May-22 15:29N 37°58' E 023°30'0 0.0
2018-May-22 14:59N 37°58' E 023°30'0 0.0
2018-May-22 14:29N 37°58' E 023°30'0 0.0
2018-May-22 13:56N 37°58' E 023°30'0 0.0
2018-May-22 13:29N 37°58' E 023°30'0 0.0
2018-May-22 12:56N 37°58' E 023°30'0 0.0
2018-May-22 12:23N 37°58' E 023°30'0 0.0
2018-May-22 11:56N 37°58' E 023°30'0 0.0
2018-May-22 11:28N 37°58' E 023°30'0 0.0
2018-May-22 10:52N 37°58' E 023°30'0 0.0
2018-May-22 10:28N 37°58' E 023°30'0 0.0
2018-May-22 09:59N 37°58' E 023°30'0 0.0
2018-May-22 09:26N 37°58' E 023°30'0 0.0
2018-May-22 08:59N 37°58' E 023°30'0 0.0
2018-May-22 08:29N 37°58' E 023°30'0 0.0
2018-May-22 07:58N 37°58' E 023°30'0 0.0
2018-May-22 07:28N 37°58' E 023°30'0 0.0
2018-May-22 06:58N 37°58' E 023°30'0 0.0
2018-May-22 06:28N 37°58' E 023°30'0 0.0
2018-May-22 05:52N 37°58' E 023°30'0 0.0
2018-May-22 05:28N 37°58' E 023°30'0 0.0
2018-May-22 04:58N 37°58' E 023°30'0 0.0
2018-May-22 04:28N 37°58' E 023°30'0 0.0
2018-May-22 03:58N 37°58' E 023°30'0 0.0
2018-May-22 03:28N 37°58' E 023°30'0 0.0
2018-May-22 02:58N 37°58' E 023°30'0 0.0
2018-May-22 02:22N 37°58' E 023°30'0 0.0
2018-May-22 01:46N 37°58' E 023°30'0 0.0
2018-May-22 01:28N 37°58' E 023°30'0 0.0
2018-May-22 00:58N 37°58' E 023°30'0 0.0
2018-May-22 00:28N 37°58' E 023°30'0 0.0
2018-May-21 23:58N 37°58' E 023°30'0 0.0
2018-May-21 23:28N 37°58' E 023°30'0 0.0
2018-May-21 22:58N 37°58' E 023°30'0 0.0
2018-May-21 22:19N 37°58' E 023°30'0 0.0
2018-May-21 21:52N 37°58' E 023°30'0 0.0
2018-May-21 21:28N 37°58' E 023°30'0 0.0
2018-May-21 20:52N 37°58' E 023°30'0 0.0
2018-May-21 20:28N 37°58' E 023°30'0 0.0
2018-May-21 19:58N 37°58' E 023°30'0 0.0
2018-May-21 19:28N 37°58' E 023°30'0 0.0
2018-May-21 18:58N 37°58' E 023°30'0 0.0
2018-May-21 18:28N 37°58' E 023°30'0 0.0
2018-May-21 17:58N 37°58' E 023°30'0 0.0
2018-May-21 17:19N 37°58' E 023°30'0 0.0
2018-May-21 16:58N 37°58' E 023°30'0 0.0
2018-May-21 16:28N 37°58' E 023°30'0 0.0
2018-May-21 15:58N 37°58' E 023°30'0 0.0
2018-May-21 15:28N 37°58' E 023°30'0 0.0
2018-May-21 14:58N 37°58' E 023°30'0 0.0
2018-May-21 14:28N 37°58' E 023°30'0 0.0
2018-May-21 13:58N 37°58' E 023°30'0 0.0
2018-May-21 13:28N 37°58' E 023°30'0 0.0
2018-May-21 12:58N 37°58' E 023°30'0 0.0
2018-May-21 12:28N 37°58' E 023°30'0 0.0
2018-May-21 11:55N 37°58' E 023°30'0 0.0
2018-May-21 11:22N 37°58' E 023°30'0 0.0
2018-May-21 10:55N 37°58' E 023°30'0 0.0
2018-May-21 10:28N 37°58' E 023°30'0 0.0
2018-May-21 09:58N 37°58' E 023°30'0 0.0
2018-May-21 09:22N 37°58' E 023°30'0 0.0
2018-May-21 08:58N 37°58' E 023°30'0 0.0
2018-May-21 08:25N 37°58' E 023°30'0 0.0
2018-May-21 07:58N 37°58' E 023°30'0 0.0
2018-May-21 07:28N 37°58' E 023°30'0 0.0
2018-May-21 06:58N 37°58' E 023°30'0 0.0
2018-May-21 06:25N 37°58' E 023°30'0 0.0
2018-May-21 05:55N 37°58' E 023°30'0 0.0
2018-May-21 05:25N 37°58' E 023°30'0 0.0
2018-May-21 04:55N 37°58' E 023°30'0 0.0
2018-May-21 04:22N 37°58' E 023°30'0 0.0
2018-May-21 03:52N 37°58' E 023°30'0 0.0
2018-May-21 02:58N 37°58' E 023°30'0 0.0
2018-May-21 02:28N 37°58' E 023°30'0 0.0
2018-May-21 01:58N 37°58' E 023°30'0 0.0
2018-May-21 01:28N 37°58' E 023°30'0 0.0
2018-May-21 00:57N 37°58' E 023°30'0 0.0
2018-May-21 00:30N 37°58' E 023°30'0 0.0
2018-May-20 23:57N 37°58' E 023°30'0 0.0
2018-May-20 23:30N 37°58' E 023°30'0 0.0
2018-May-20 22:51N 37°58' E 023°30'0 0.0
2018-May-20 22:30N 37°58' E 023°30'0 0.0
2018-May-20 22:00N 37°58' E 023°30'0 0.0
2018-May-20 21:29N 37°58' E 023°30'0 0.0
2018-May-20 20:49N 37°58' E 023°30'0 0.0
2018-May-20 20:28N 37°58' E 023°30'0 0.0
2018-May-20 19:58N 37°58' E 023°30'0 0.0
2018-May-20 19:16N 37°58' E 023°30'0 0.0
2018-May-20 18:58N 37°58' E 023°30'0 0.0
2018-May-20 18:28N 37°58' E 023°30'0 0.0
2018-May-20 17:55N 37°58' E 023°30'0 0.0
2018-May-20 17:28N 37°58' E 023°30'0 0.0
2018-May-20 16:57N 37°58' E 023°30'0 0.0
2018-May-20 16:21N 37°58' E 023°30'0 0.0
2018-May-20 15:57N 37°58' E 023°30'0 0.0
2018-May-20 15:30N 37°58' E 023°30'0 0.0
2018-May-20 15:00N 37°58' E 023°30'0 0.0
2018-May-20 14:30N 37°58' E 023°30'0 0.0
2018-May-20 13:57N 37°58' E 023°30'0 0.0
2018-May-20 13:27N 37°58' E 023°30'0 0.0
2018-May-20 13:00N 37°58' E 023°30'0 0.0
2018-May-20 12:30N 37°58' E 023°30'0 0.0
2018-May-20 11:57N 37°58' E 023°30'0 0.0
2018-May-20 11:30N 37°58' E 023°30'0 0.0
2018-May-20 11:00N 37°58' E 023°30'0 0.0
2018-May-20 10:22N 37°58' E 023°30'0 0.0
2018-May-20 09:58N 37°58' E 023°30'0 0.0
2018-May-20 09:28N 37°58' E 023°30'0 0.0
2018-May-20 08:58N 37°58' E 023°30'0 0.0
2018-May-20 08:28N 37°58' E 023°30'0 0.0
2018-May-20 07:58N 37°58' E 023°30'0 0.0
2018-May-20 07:28N 37°58' E 023°30'0 0.0
2018-May-20 06:58N 37°58' E 023°30'0 0.0
2018-May-20 06:28N 37°58' E 023°30'0 0.0
2018-May-20 05:58N 37°58' E 023°30'0 0.0
2018-May-20 05:28N 37°58' E 023°30'0 0.0
2018-May-20 04:58N 37°58' E 023°30'0 0.0
2018-May-20 04:28N 37°58' E 023°30'0 0.0
2018-May-20 03:58N 37°58' E 023°30'0 0.0
2018-May-20 03:28N 37°58' E 023°30'0 0.0
2018-May-20 02:58N 37°58' E 023°30'0 0.0
2018-May-20 02:28N 37°58' E 023°30'0 0.0
2018-May-20 01:58N 37°58' E 023°30'0 0.0
2018-May-20 01:19N 37°58' E 023°30'0 0.0
2018-May-20 00:55N 37°58' E 023°30'0 0.0
2018-May-20 00:28N 37°58' E 023°30'0 0.0
2018-May-19 23:58N 37°58' E 023°30'0 0.0
2018-May-19 23:25N 37°58' E 023°30'0 0.0
2018-May-19 23:00N 37°58' E 023°30'0 0.0
2018-May-19 22:27N 37°58' E 023°30'0 0.0
2018-May-19 21:57N 37°58' E 023°30'0 0.0
2018-May-19 21:25N 37°58' E 023°30'0 0.0
2018-May-19 20:55N 37°58' E 023°30'0 0.0
2018-May-19 20:30N 37°58' E 023°30'0 0.0
2018-May-19 20:00N 37°58' E 023°30'0 0.0
2018-May-19 19:30N 37°58' E 023°30'0 0.0
2018-May-19 19:00N 37°58' E 023°30'0 0.0
2018-May-19 18:30N 37°58' E 023°30'0 0.0
2018-May-19 18:00N 37°58' E 023°30'0 0.0
2018-May-19 17:27N 37°58' E 023°30'0 0.0
2018-May-19 17:00N 37°58' E 023°30'0 0.0
2018-May-19 16:30N 37°58' E 023°30'0 0.0
2018-May-19 15:57N 37°58' E 023°30'0 0.0
2018-May-19 15:27N 37°58' E 023°30'0 0.0
2018-May-19 15:00N 37°58' E 023°30'0 0.0
2018-May-19 14:28N 37°58' E 023°30'0 0.0
2018-May-19 13:58N 37°58' E 023°30'0 0.0
2018-May-19 13:25N 37°58' E 023°30'0 0.0
2018-May-19 12:58N 37°58' E 023°30'0 0.0
2018-May-19 12:22N 37°58' E 023°30'0 0.0
2018-May-19 11:52N 37°58' E 023°30'0 0.0
2018-May-19 11:25N 37°58' E 023°30'0 0.0
2018-May-19 10:49N 37°58' E 023°30'0 0.0
2018-May-19 10:22N 37°58' E 023°30'0 0.0
2018-May-19 09:58N 37°58' E 023°30'0 0.0
2018-May-19 09:28N 37°58' E 023°30'0 0.0
2018-May-19 08:52N 37°58' E 023°30'0 0.0
2018-May-19 08:28N 37°58' E 023°30'0 0.0
2018-May-19 07:55N 37°58' E 023°30'0 0.0
2018-May-19 07:22N 37°58' E 023°30'0 0.0
2018-May-19 06:52N 37°58' E 023°30'0 0.0
2018-May-19 06:22N 37°58' E 023°30'0 0.0
2018-May-19 06:01N 37°58' E 023°30'0 0.0
2018-May-19 05:30N 37°58' E 023°30'0 0.0
2018-May-19 05:00N 37°58' E 023°30'0 0.0
2018-May-19 04:27N 37°58' E 023°30'0 0.0
2018-May-19 03:57N 37°58' E 023°30'0 0.0
2018-May-19 03:27N 37°58' E 023°30'0 0.0
2018-May-19 03:00N 37°58' E 023°30'0 0.0
2018-May-19 02:24N 37°58' E 023°30'0 0.0
2018-May-19 02:00N 37°58' E 023°30'0 0.0
2018-May-19 01:27N 37°58' E 023°30'0 0.0
2018-May-19 01:00N 37°58' E 023°30'0 0.0
2018-May-19 00:30N 37°58' E 023°30'0 0.0
2018-May-18 23:54N 37°58' E 023°30'0 0.0
2018-May-18 23:27N 37°58' E 023°30'0 0.0
2018-May-18 22:57N 37°58' E 023°30'0 0.0
2018-May-18 22:30N 37°58' E 023°30'0 0.0
2018-May-18 22:00N 37°58' E 023°30'0 0.0
2018-May-18 21:30N 37°58' E 023°30'0 0.0
2018-May-18 20:51N 37°58' E 023°30'0 0.0
2018-May-18 20:30N 37°58' E 023°30'0 0.0
2018-May-18 19:51N 37°58' E 023°30'0 0.0
2018-May-18 19:27N 37°58' E 023°30'0 0.0
2018-May-18 18:51N 37°58' E 023°30'0 0.0
2018-May-18 18:21N 37°58' E 023°30'0 0.0
2018-May-18 17:54N 37°58' E 023°30'0 0.0
2018-May-18 17:27N 37°58' E 023°30'0 0.0
2018-May-18 16:57N 37°58' E 023°30'0 0.0
2018-May-18 16:30N 37°58' E 023°30'0 0.0
2018-May-18 15:57N 37°58' E 023°30'0 0.0
2018-May-18 15:27N 37°58' E 023°30'0 0.0
2018-May-18 14:51N 37°58' E 023°30'0 0.0
2018-May-18 14:27N 37°58' E 023°30'0 0.0
2018-May-18 14:00N 37°58' E 023°30'0 0.0
2018-May-18 13:24N 37°58' E 023°30'0 0.0
2018-May-18 13:00N 37°58' E 023°30'0 0.0
2018-May-18 12:24N 37°58' E 023°30'0 0.0
2018-May-18 12:00N 37°58' E 023°30'0 0.0
2018-May-18 11:27N 37°58' E 023°30'0 0.0
2018-May-18 10:51N 37°58' E 023°30'0 0.0
2018-May-18 10:30N 37°58' E 023°30'0 0.0
2018-May-18 10:00N 37°58' E 023°30'0 0.0
2018-May-18 09:30N 37°58' E 023°30'0 0.0
2018-May-18 08:57N 37°58' E 023°30'0 0.0
2018-May-18 08:18N 37°58' E 023°30'0 0.0
2018-May-18 07:54N 37°58' E 023°30'0 0.0
2018-May-18 07:30N 37°58' E 023°30'0 0.0
2018-May-18 07:00N 37°58' E 023°30'0 0.0
2018-May-18 06:30N 37°58' E 023°30'0 0.0
2018-May-18 05:57N 37°58' E 023°30'0 0.0
2018-May-18 05:30N 37°58' E 023°30'0 0.0
2018-May-18 05:00N 37°58' E 023°30'0 0.0
2018-May-18 04:30N 37°58' E 023°30'0 0.0
2018-May-18 03:57N 37°58' E 023°30'0 0.0
2018-May-18 03:30N 37°58' E 023°30'0 0.0
2018-May-18 02:57N 37°58' E 023°30'0 0.0
2018-May-18 02:30N 37°58' E 023°30'0 0.0
2018-May-18 02:00N 37°58' E 023°30'0 0.0
2018-May-18 01:30N 37°58' E 023°30'0 0.0
2018-May-18 00:57N 37°58' E 023°30'0 0.0
2018-May-18 00:30N 37°58' E 023°30'0 0.0
2018-May-17 23:59N 37°58' E 023°30'0 0.0
2018-May-17 23:23N 37°58' E 023°30'0 0.0
2018-May-17 22:59N 37°58' E 023°30'0 0.0
2018-May-17 22:29N 37°58' E 023°30'0 0.0
2018-May-17 21:59N 37°58' E 023°30'0 0.0
2018-May-17 21:29N 37°58' E 023°30'0 0.0
2018-May-17 20:59N 37°58' E 023°30'0 0.0
2018-May-17 20:29N 37°58' E 023°30'0 0.0
2018-May-17 19:47N 37°58' E 023°30'0 0.0
2018-May-17 19:23N 37°58' E 023°30'0 0.0
2018-May-17 18:59N 37°58' E 023°30'0 0.0
2018-May-17 18:20N 37°58' E 023°30'0 0.0
2018-May-17 17:59N 37°58' E 023°30'0 0.0
2018-May-17 17:23N 37°58' E 023°30'0 0.0
2018-May-17 16:59N 37°58' E 023°30'0 0.0
2018-May-17 16:29N 37°58' E 023°30'0 0.0
2018-May-17 15:53N 37°58' E 023°30'0 0.0
2018-May-17 15:26N 37°58' E 023°30'0 0.0
2018-May-17 14:59N 37°58' E 023°30'0 0.0
2018-May-17 14:29N 37°58' E 023°30'0 0.0
2018-May-17 13:59N 37°58' E 023°30'0 0.0
2018-May-17 13:29N 37°58' E 023°30'0 0.0
2018-May-17 12:59N 37°58' E 023°30'0 0.0
2018-May-17 12:29N 37°58' E 023°30'0 0.0
2018-May-17 11:59N 37°58' E 023°30'0 0.0
2018-May-17 11:23N 37°58' E 023°30'0 0.0
2018-May-17 10:59N 37°58' E 023°30'0 0.0
2018-May-17 10:26N 37°58' E 023°30'0 0.0
2018-May-17 10:01N 37°58' E 023°30'0 0.0
2018-May-17 09:19N 37°58' E 023°30'0 0.0
2018-May-17 08:59N 37°58' E 023°30'0 0.0
2018-May-17 08:13N 37°58' E 023°30'0 0.0
2018-May-17 07:58N 37°58' E 023°30'0 0.0
2018-May-17 07:22N 37°58' E 023°30'0 0.0
2018-May-17 06:58N 37°58' E 023°30'0 0.0
2018-May-17 06:19N 37°58' E 023°30'0 0.0
2018-May-17 05:58N 37°58' E 023°30'0 0.0
2018-May-17 05:26N 37°58' E 023°30'0 0.0
2018-May-17 04:59N 37°58' E 023°30'0 0.0
2018-May-17 04:30N 37°58' E 023°30'0 0.0
2018-May-17 03:50N 37°58' E 023°30'0 0.0
2018-May-17 03:29N 37°58' E 023°30'0 0.0
2018-May-17 02:59N 37°58' E 023°30'0 0.0
2018-May-17 02:26N 37°58' E 023°30'0 0.0
2018-May-17 01:51N 37°58' E 023°30'0 0.0
2018-May-17 01:28N 37°58' E 023°30'0 0.0
2018-May-17 00:59N 37°58' E 023°30'0 0.0
2018-May-17 00:29N 37°58' E 023°30'0 0.0
2018-May-16 23:59N 37°58' E 023°30'0 0.0
2018-May-16 23:26N 37°58' E 023°30'0 0.0
2018-May-16 22:53N 37°58' E 023°30'0 0.0
2018-May-16 22:29N 37°58' E 023°30'0 0.0
2018-May-16 21:59N 37°58' E 023°30'0 0.0
2018-May-16 21:29N 37°58' E 023°30'0 0.0
2018-May-16 20:56N 37°58' E 023°30'0 0.0
2018-May-16 20:29N 37°58' E 023°30'0 0.0
2018-May-16 19:55N 37°58' E 023°30'0 0.0
2018-May-16 19:23N 37°58' E 023°30'0 0.0
2018-May-16 18:58N 37°58' E 023°30'0 0.0
2018-May-16 18:27N 37°58' E 023°30'0 0.0
2018-May-16 17:50N 37°58' E 023°30'0 0.0
2018-May-16 17:26N 37°58' E 023°30'0 0.0
2018-May-16 16:58N 37°58' E 023°30'0 0.0
2018-May-16 16:28N 37°58' E 023°30'0 0.0
2018-May-16 15:58N 37°58' E 023°30'  
Track history (hours):
 
Tides and Currents Weather Stations Pressure Air Temp Water Temp Dewpoint Dewpoint Depression Visibility Wind Speed Wind Dir Waves Ship Positions

Mystic Blue

Last reported at 2018-May-26 15:50 UTC. Time now 2018-Aug-16 07:59 UTC.
Position N 37°47' E 023°44'.
Warning: this ship's position is months out of date.

Length 12 m.

Type: Pleasure craft. MMSI: 239989200.

Date/timePositionNaut miles runAvg speedWind from/ knotsBaromVisibWave heightAir tempDewpointWater temp
2018-May-26 15:50N 37°47' E 023°44'2 6.7
2018-May-26 15:30N 37°49' E 023°43'3 7.1
2018-May-26 15:00N 37°52' E 023°42'1 2.6
2018-May-26 14:30N 37°53' E 023°42'2 0.1
2018-May-25 15:55N 37°55' E 023°42'0 0.0
2018-May-25 12:58N 37°55' E 023°42'0 0.0
2018-May-25 12:28N 37°55' E 023°42'0 0.0
2018-May-25 11:58N 37°55' E 023°42'0 0.0
2018-May-25 11:30N 37°55' E 023°42'0 0.0
2018-May-25 11:00N 37°55' E 023°42'0 0.0
2018-May-25 10:30N 37°55' E 023°42'0 0.0
2018-May-25 10:00N 37°55' E 023°42'0 0.0
2018-May-25 09:30N 37°55' E 023°42'0 0.0
2018-May-25 09:00N 37°55' E 023°42'0 0.0
2018-May-25 08:30N 37°55' E 023°42'3 5.4
2018-May-25 08:00N 37°54' E 023°39'4 7.3
2018-May-25 07:30N 37°53' E 023°34'3 6.5
2018-May-25 07:00N 37°53' E 023°30'5 5.8
2018-May-25 06:07N 37°54' E 023°24'1 7.7
2018-May-25 05:59N 37°55' E 023°24'4 7.2
2018-May-25 05:29N 37°57' E 023°28'1 2.4
2018-May-25 04:58N 37°58' E 023°30'0 0.0
2018-May-25 04:30N 37°58' E 023°30'0 0.0
2018-May-25 03:57N 37°58' E 023°30'0 0.0
2018-May-25 03:30N 37°58' E 023°30'0 0.0
2018-May-25 03:00N 37°58' E 023°30'0 0.0
2018-May-25 02:24N 37°58' E 023°30'0 0.0
2018-May-25 01:57N 37°58' E 023°30'0 0.0
2018-May-25 01:30N 37°58' E 023°30'0 0.0
2018-May-25 01:00N 37°58' E 023°30'0 0.0
2018-May-25 00:30N 37°58' E 023°30'0 0.0
2018-May-25 00:00N 37°58' E 023°30'0 0.0
2018-May-24 23:29N 37°58' E 023°30'0 0.0
2018-May-24 22:59N 37°58' E 023°30'0 0.0
2018-May-24 22:29N 37°58' E 023°30'0 0.0
2018-May-24 21:56N 37°58' E 023°30'0 0.0
2018-May-24 21:30N 37°58' E 023°30'0 0.0
2018-May-24 20:54N 37°58' E 023°30'0 0.0
2018-May-24 20:29N 37°58' E 023°30'0 0.0
2018-May-24 19:59N 37°58' E 023°30'0 0.0
2018-May-24 19:20N 37°58' E 023°30'0 0.0
2018-May-24 19:00N 37°58' E 023°30'0 0.0
2018-May-24 18:26N 37°58' E 023°30'0 0.0
2018-May-24 17:41N 37°58' E 023°30'0 0.0
2018-May-24 17:26N 37°58' E 023°30'0 0.0
2018-May-24 16:56N 37°58' E 023°30'0 0.0
2018-May-24 16:26N 37°58' E 023°30'0 0.0
2018-May-24 15:59N 37°58' E 023°30'0 0.0
2018-May-24 15:26N 37°58' E 023°30'0 0.0
2018-May-24 14:56N 37°58' E 023°30'0 0.0
2018-May-24 14:29N 37°58' E 023°30'0 0.0
2018-May-24 13:59N 37°58' E 023°30'0 0.0
2018-May-24 08:56N 37°58' E 023°30'0 0.0
2018-May-24 08:26N 37°58' E 023°30'0 0.0
2018-May-24 07:41N 37°58' E 023°30'0 0.0
2018-May-24 07:20N 37°58' E 023°30'0 0.0
2018-May-24 06:59N 37°58' E 023°30'0 0.0
2018-May-24 06:30N 37°58' E 023°30'0 0.0
2018-May-24 05:58N 37°58' E 023°30'0 0.0
2018-May-24 05:29N 37°58' E 023°30'0 0.0
2018-May-24 04:56N 37°58' E 023°30'0 0.0
2018-May-24 04:29N 37°58' E 023°30'0 0.0
2018-May-24 03:58N 37°58' E 023°30'0 0.0
2018-May-24 03:19N 37°58' E 023°30'0 0.0
2018-May-24 02:55N 37°58' E 023°30'0 0.0
2018-May-24 02:22N 37°58' E 023°30'0 0.0
2018-May-24 01:58N 37°58' E 023°30'0 0.0
2018-May-24 01:25N 37°58' E 023°30'0 0.0
2018-May-24 00:49N 37°58' E 023°30'0 0.0
2018-May-24 00:21N 37°58' E 023°30'0 0.0
2018-May-23 23:54N 37°58' E 023°30'0 0.0
2018-May-23 23:27N 37°58' E 023°30'0 0.0
2018-May-23 23:00N 37°58' E 023°30'0 0.0
2018-May-23 22:24N 37°58' E 023°30'0 0.0
2018-May-23 21:51N 37°58' E 023°30'0 0.0
2018-May-23 21:27N 37°58' E 023°30'0 0.0
2018-May-23 20:54N 37°58' E 023°30'0 0.0
2018-May-23 20:27N 37°58' E 023°30'0 0.0
2018-May-23 20:00N 37°58' E 023°30'0 0.0
2018-May-23 19:30N 37°58' E 023°30'0 0.0
2018-May-23 19:00N 37°58' E 023°30'0 0.0
2018-May-23 18:30N 37°58' E 023°30'0 0.0
2018-May-23 18:00N 37°58' E 023°30'0 0.0
2018-May-23 17:09N 37°58' E 023°30'0 0.0
2018-May-23 17:00N 37°58' E 023°30'0 0.0
2018-May-23 16:24N 37°58' E 023°30'0 0.0
2018-May-23 15:57N 37°58' E 023°30'0 0.0
2018-May-23 15:27N 37°58' E 023°30'0 0.0
2018-May-23 15:00N 37°58' E 023°30'0 0.0
2018-May-23 14:28N 37°58' E 023°30'0 0.0
2018-May-23 13:57N 37°58' E 023°30'0 0.0
2018-May-23 13:30N 37°58' E 023°30'0 0.0
2018-May-23 13:01N 37°58' E 023°30'0 0.0
2018-May-23 12:28N 37°58' E 023°30'0 0.0
2018-May-23 11:48N 37°58' E 023°30'0 0.0
2018-May-23 11:24N 37°58' E 023°30'0 0.0
2018-May-23 11:00N 37°58' E 023°30'0 0.0
2018-May-23 10:30N 37°58' E 023°30'0 0.0
2018-May-23 10:00N 37°58' E 023°30'0 0.0
2018-May-23 09:24N 37°58' E 023°30'0 0.0
2018-May-23 09:00N 37°58' E 023°30'0 0.0
2018-May-23 08:29N 37°58' E 023°30'0 0.0
2018-May-23 08:00N 37°58' E 023°30'0 0.0
2018-May-23 07:27N 37°58' E 023°30'0 0.0
2018-May-23 06:57N 37°58' E 023°30'0 0.0
2018-May-23 06:30N 37°58' E 023°30'0 0.0
2018-May-23 05:51N 37°58' E 023°30'0 0.0
2018-May-23 05:30N 37°58' E 023°30'0 0.0
2018-May-23 04:57N 37°58' E 023°30'0 0.0
2018-May-23 04:28N 37°58' E 023°30'0 0.0
2018-May-23 04:00N 37°58' E 023°30'0 0.0
2018-May-23 03:30N 37°58' E 023°30'0 0.0
2018-May-23 03:00N 37°58' E 023°30'0 0.0
2018-May-23 02:30N 37°58' E 023°30'0 0.0
2018-May-23 02:00N 37°58' E 023°30'0 0.0
2018-May-23 01:20N 37°58' E 023°30'0 0.0
2018-May-23 00:55N 37°58' E 023°30'0 0.0
2018-May-23 00:29N 37°58' E 023°30'0 0.0
2018-May-22 23:59N 37°58' E 023°30'0 0.0
2018-May-22 23:29N 37°58' E 023°30'0 0.0
2018-May-22 22:59N 37°58' E 023°30'0 0.0
2018-May-22 22:26N 37°58' E 023°30'0 0.0
2018-May-22 21:53N 37°58' E 023°30'0 0.0
2018-May-22 21:29N 37°58' E 023°30'0 0.0
2018-May-22 20:59N 37°58' E 023°30'0 0.0
2018-May-22 20:26N 37°58' E 023°30'0 0.0
2018-May-22 19:59N 37°58' E 023°30'0 0.0
2018-May-22 19:20N 37°58' E 023°30'0 0.0
2018-May-22 18:59N 37°58' E 023°30'0 0.0
2018-May-22 18:23N 37°58' E 023°30'0 0.0
2018-May-22 17:50N 37°58' E 023°30'0 0.0
2018-May-22 17:26N 37°58' E 023°30'0 0.0
2018-May-22 16:56N 37°58' E 023°30'0 0.0
2018-May-22 16:23N 37°58' E 023°30'0 0.0
2018-May-22 15:59N 37°58' E 023°30'0 0.0
2018-May-22 15:29N 37°58' E 023°30'0 0.0
2018-May-22 14:59N 37°58' E 023°30'0 0.0
2018-May-22 14:29N 37°58' E 023°30'0 0.0
2018-May-22 13:56N 37°58' E 023°30'0 0.0
2018-May-22 13:29N 37°58' E 023°30'0 0.0
2018-May-22 12:56N 37°58' E 023°30'0 0.0
2018-May-22 12:23N 37°58' E 023°30'0 0.0
2018-May-22 11:56N 37°58' E 023°30'0 0.0
2018-May-22 11:28N 37°58' E 023°30'0 0.0
2018-May-22 10:52N 37°58' E 023°30'0 0.0
2018-May-22 10:28N 37°58' E 023°30'0 0.0
2018-May-22 09:59N 37°58' E 023°30'0 0.0
2018-May-22 09:26N 37°58' E 023°30'0 0.0
2018-May-22 08:59N 37°58' E 023°30'0 0.0
2018-May-22 08:29N 37°58' E 023°30'0 0.0
2018-May-22 07:58N 37°58' E 023°30'0 0.0
2018-May-22 07:28N 37°58' E 023°30'0 0.0
2018-May-22 06:58N 37°58' E 023°30'0 0.0
2018-May-22 06:28N 37°58' E 023°30'0 0.0
2018-May-22 05:52N 37°58' E 023°30'0 0.0
2018-May-22 05:28N 37°58' E 023°30'0 0.0
2018-May-22 04:58N 37°58' E 023°30'0 0.0
2018-May-22 04:28N 37°58' E 023°30'0 0.0
2018-May-22 03:58N 37°58' E 023°30'0 0.0
2018-May-22 03:28N 37°58' E 023°30'0 0.0
2018-May-22 02:58N 37°58' E 023°30'0 0.0
2018-May-22 02:22N 37°58' E 023°30'0 0.0
2018-May-22 01:46N 37°58' E 023°30'0 0.0
2018-May-22 01:28N 37°58' E 023°30'0 0.0
2018-May-22 00:58N 37°58' E 023°30'0 0.0
2018-May-22 00:28N 37°58' E 023°30'0 0.0
2018-May-21 23:58N 37°58' E 023°30'0 0.0
2018-May-21 23:28N 37°58' E 023°30'0 0.0
2018-May-21 22:58N 37°58' E 023°30'0 0.0
2018-May-21 22:19N 37°58' E 023°30'0 0.0
2018-May-21 21:52N 37°58' E 023°30'0 0.0
2018-May-21 21:28N 37°58' E 023°30'0 0.0
2018-May-21 20:52N 37°58' E 023°30'0 0.0
2018-May-21 20:28N 37°58' E 023°30'0 0.0
2018-May-21 19:58N 37°58' E 023°30'0 0.0
2018-May-21 19:28N 37°58' E 023°30'0 0.0
2018-May-21 18:58N 37°58' E 023°30'0 0.0
2018-May-21 18:28N 37°58' E 023°30'0 0.0
2018-May-21 17:58N 37°58' E 023°30'0 0.0
2018-May-21 17:19N 37°58' E 023°30'0 0.0
2018-May-21 16:58N 37°58' E 023°30'0 0.0
2018-May-21 16:28N 37°58' E 023°30'0 0.0
2018-May-21 15:58N 37°58' E 023°30'0 0.0
2018-May-21 15:28N 37°58' E 023°30'0 0.0
2018-May-21 14:58N 37°58' E 023°30'0 0.0
2018-May-21 14:28N 37°58' E 023°30'0 0.0
2018-May-21 13:58N 37°58' E 023°30'0 0.0
2018-May-21 13:28N 37°58' E 023°30'0 0.0
2018-May-21 12:58N 37°58' E 023°30'0 0.0
2018-May-21 12:28N 37°58' E 023°30'0 0.0
2018-May-21 11:55N 37°58' E 023°30'0 0.0
2018-May-21 11:22N 37°58' E 023°30'0 0.0
2018-May-21 10:55N 37°58' E 023°30'0 0.0
2018-May-21 10:28N 37°58' E 023°30'0 0.0
2018-May-21 09:58N 37°58' E 023°30'0 0.0
2018-May-21 09:22N 37°58' E 023°30'0 0.0
2018-May-21 08:58N 37°58' E 023°30'0 0.0
2018-May-21 08:25N 37°58' E 023°30'0 0.0
2018-May-21 07:58N 37°58' E 023°30'0 0.0
2018-May-21 07:28N 37°58' E 023°30'0 0.0
2018-May-21 06:58N 37°58' E 023°30'0 0.0
2018-May-21 06:25N 37°58' E 023°30'0 0.0
2018-May-21 05:55N 37°58' E 023°30'0 0.0
2018-May-21 05:25N 37°58' E 023°30'0 0.0
2018-May-21 04:55N 37°58' E 023°30'0 0.0
2018-May-21 04:22N 37°58' E 023°30'0 0.0
2018-May-21 03:52N 37°58' E 023°30'0 0.0
2018-May-21 02:58N 37°58' E 023°30'0 0.0
2018-May-21 02:28N 37°58' E 023°30'0 0.0
2018-May-21 01:58N 37°58' E 023°30'0 0.0
2018-May-21 01:28N 37°58' E 023°30'0 0.0
2018-May-21 00:57N 37°58' E 023°30'0 0.0
2018-May-21 00:30N 37°58' E 023°30'0 0.0
2018-May-20 23:57N 37°58' E 023°30'0 0.0
2018-May-20 23:30N 37°58' E 023°30'0 0.0
2018-May-20 22:51N 37°58' E 023°30'0 0.0
2018-May-20 22:30N 37°58' E 023°30'0 0.0
2018-May-20 22:00N 37°58' E 023°30'0 0.0
2018-May-20 21:29N 37°58' E 023°30'0 0.0
2018-May-20 20:49N 37°58' E 023°30'0 0.0
2018-May-20 20:28N 37°58' E 023°30'0 0.0
2018-May-20 19:58N 37°58' E 023°30'0 0.0
2018-May-20 19:16N 37°58' E 023°30'0 0.0
2018-May-20 18:58N 37°58' E 023°30'0 0.0
2018-May-20 18:28N 37°58' E 023°30'0 0.0
2018-May-20 17:55N 37°58' E 023°30'0 0.0
2018-May-20 17:28N 37°58' E 023°30'0 0.0
2018-May-20 16:57N 37°58' E 023°30'0 0.0
2018-May-20 16:21N 37°58' E 023°30'0 0.0
2018-May-20 15:57N 37°58' E 023°30'0 0.0
2018-May-20 15:30N 37°58' E 023°30'0 0.0
2018-May-20 15:00N 37°58' E 023°30'0 0.0
2018-May-20 14:30N 37°58' E 023°30'0 0.0
2018-May-20 13:57N 37°58' E 023°30'0 0.0
2018-May-20 13:27N 37°58' E 023°30'0 0.0
2018-May-20 13:00N 37°58' E 023°30'0 0.0
2018-May-20 12:30N 37°58' E 023°30'0 0.0
2018-May-20 11:57N 37°58' E 023°30'0 0.0
2018-May-20 11:30N 37°58' E 023°30'0 0.0
2018-May-20 11:00N 37°58' E 023°30'0 0.0
2018-May-20 10:22N 37°58' E 023°30'0 0.0
2018-May-20 09:58N 37°58' E 023°30'0 0.0
2018-May-20 09:28N 37°58' E 023°30'0 0.0
2018-May-20 08:58N 37°58' E 023°30'0 0.0
2018-May-20 08:28N 37°58' E 023°30'0 0.0
2018-May-20 07:58N 37°58' E 023°30'0 0.0
2018-May-20 07:28N 37°58' E 023°30'0 0.0
2018-May-20 06:58N 37°58' E 023°30'0 0.0
2018-May-20 06:28N 37°58' E 023°30'0 0.0
2018-May-20 05:58N 37°58' E 023°30'0 0.0
2018-May-20 05:28N 37°58' E 023°30'0 0.0
2018-May-20 04:58N 37°58' E 023°30'0 0.0
2018-May-20 04:28N 37°58' E 023°30'0 0.0
2018-May-20 03:58N 37°58' E 023°30'0 0.0
2018-May-20 03:28N 37°58' E 023°30'0 0.0
2018-May-20 02:58N 37°58' E 023°30'0 0.0
2018-May-20 02:28N 37°58' E 023°30'0 0.0
2018-May-20 01:58N 37°58' E 023°30'0 0.0
2018-May-20 01:19N 37°58' E 023°30'0 0.0
2018-May-20 00:55N 37°58' E 023°30'0 0.0
2018-May-20 00:28N 37°58' E 023°30'0 0.0
2018-May-19 23:58N 37°58' E 023°30'0 0.0
2018-May-19 23:25N 37°58' E 023°30'0 0.0
2018-May-19 23:00N 37°58' E 023°30'0 0.0
2018-May-19 22:27N 37°58' E 023°30'0 0.0
2018-May-19 21:57N 37°58' E 023°30'0 0.0
2018-May-19 21:25N 37°58' E 023°30'0 0.0
2018-May-19 20:55N 37°58' E 023°30'0 0.0
2018-May-19 20:30N 37°58' E 023°30'0 0.0
2018-May-19 20:00N 37°58' E 023°30'0 0.0
2018-May-19 19:30N 37°58' E 023°30'0 0.0
2018-May-19 19:00N 37°58' E 023°30'0 0.0
2018-May-19 18:30N 37°58' E 023°30'0 0.0
2018-May-19 18:00N 37°58' E 023°30'0 0.0
2018-May-19 17:27N 37°58' E 023°30'0 0.0
2018-May-19 17:00N 37°58' E 023°30'0 0.0
2018-May-19 16:30N 37°58' E 023°30'0 0.0
2018-May-19 15:57N 37°58' E 023°30'0 0.0
2018-May-19 15:27N 37°58' E 023°30'0 0.0
2018-May-19 15:00N 37°58' E 023°30'0 0.0
2018-May-19 14:28N 37°58' E 023°30'0 0.0
2018-May-19 13:58N 37°58' E 023°30'0 0.0
2018-May-19 13:25N 37°58' E 023°30'0 0.0
2018-May-19 12:58N 37°58' E 023°30'0 0.0
2018-May-19 12:22N 37°58' E 023°30'0 0.0
2018-May-19 11:52N 37°58' E 023°30'0 0.0
2018-May-19 11:25N 37°58' E 023°30'0 0.0
2018-May-19 10:49N 37°58' E 023°30'0 0.0
2018-May-19 10:22N 37°58' E 023°30'0 0.0
2018-May-19 09:58N 37°58' E 023°30'0 0.0
2018-May-19 09:28N 37°58' E 023°30'0 0.0
2018-May-19 08:52N 37°58' E 023°30'0 0.0
2018-May-19 08:28N 37°58' E 023°30'0 0.0
2018-May-19 07:55N 37°58' E 023°30'0 0.0
2018-May-19 07:22N 37°58' E 023°30'0 0.0
2018-May-19 06:52N 37°58' E 023°30'0 0.0
2018-May-19 06:22N 37°58' E 023°30'0 0.0
2018-May-19 06:01N 37°58' E 023°30'0 0.0
2018-May-19 05:30N 37°58' E 023°30'0 0.0
2018-May-19 05:00N 37°58' E 023°30'0 0.0
2018-May-19 04:27N 37°58' E 023°30'0 0.0
2018-May-19 03:57N 37°58' E 023°30'0 0.0
2018-May-19 03:27N 37°58' E 023°30'0 0.0
2018-May-19 03:00N 37°58' E 023°30'0 0.0
2018-May-19 02:24N 37°58' E 023°30'0 0.0
2018-May-19 02:00N 37°58' E 023°30'0 0.0
2018-May-19 01:27N 37°58' E 023°30'0 0.0
2018-May-19 01:00N 37°58' E 023°30'0 0.0
2018-May-19 00:30N 37°58' E 023°30'0 0.0
2018-May-18 23:54N 37°58' E 023°30'0 0.0
2018-May-18 23:27N 37°58' E 023°30'0 0.0
2018-May-18 22:57N 37°58' E 023°30'0 0.0
2018-May-18 22:30N 37°58' E 023°30'0 0.0
2018-May-18 22:00N 37°58' E 023°30'0 0.0
2018-May-18 21:30N 37°58' E 023°30'0 0.0
2018-May-18 20:51N 37°58' E 023°30'0 0.0
2018-May-18 20:30N 37°58' E 023°30'0 0.0
2018-May-18 19:51N 37°58' E 023°30'0 0.0
2018-May-18 19:27N 37°58' E 023°30'0 0.0
2018-May-18 18:51N 37°58' E 023°30'0 0.0
2018-May-18 18:21N 37°58' E 023°30'0 0.0
2018-May-18 17:54N 37°58' E 023°30'0 0.0
2018-May-18 17:27N 37°58' E 023°30'0 0.0
2018-May-18 16:57N 37°58' E 023°30'0 0.0
2018-May-18 16:30N 37°58' E 023°30'0 0.0
2018-May-18 15:57N 37°58' E 023°30'0 0.0
2018-May-18 15:27N 37°58' E 023°30'0 0.0
2018-May-18 14:51N 37°58' E 023°30'0 0.0
2018-May-18 14:27N 37°58' E 023°30'0 0.0
2018-May-18 14:00N 37°58' E 023°30'0 0.0
2018-May-18 13:24N 37°58' E 023°30'0 0.0
2018-May-18 13:00N 37°58' E 023°30'0 0.0
2018-May-18 12:24N 37°58' E 023°30'0 0.0
2018-May-18 12:00N 37°58' E 023°30'0 0.0
2018-May-18 11:27N 37°58' E 023°30'0 0.0
2018-May-18 10:51N 37°58' E 023°30'0 0.0
2018-May-18 10:30N 37°58' E 023°30'0 0.0
2018-May-18 10:00N 37°58' E 023°30'0 0.0
2018-May-18 09:30N 37°58' E 023°30'0 0.0
2018-May-18 08:57N 37°58' E 023°30'0 0.0
2018-May-18 08:18N 37°58' E 023°30'0 0.0
2018-May-18 07:54N 37°58' E 023°30'0 0.0
2018-May-18 07:30N 37°58' E 023°30'0 0.0
2018-May-18 07:00N 37°58' E 023°30'0 0.0
2018-May-18 06:30N 37°58' E 023°30'0 0.0
2018-May-18 05:57N 37°58' E 023°30'0 0.0
2018-May-18 05:30N 37°58' E 023°30'0 0.0
2018-May-18 05:00N 37°58' E 023°30'0 0.0
2018-May-18 04:30N 37°58' E 023°30'0 0.0
2018-May-18 03:57N 37°58' E 023°30'0 0.0
2018-May-18 03:30N 37°58' E 023°30'0 0.0
2018-May-18 02:57N 37°58' E 023°30'0 0.0
2018-May-18 02:30N 37°58' E 023°30'0 0.0
2018-May-18 02:00N 37°58' E 023°30'0 0.0
2018-May-18 01:30N 37°58' E 023°30'0 0.0
2018-May-18 00:57N 37°58' E 023°30'0 0.0
2018-May-18 00:30N 37°58' E 023°30'0 0.0
2018-May-17 23:59N 37°58' E 023°30'0 0.0
2018-May-17 23:23N 37°58' E 023°30'0 0.0
2018-May-17 22:59N 37°58' E 023°30'0 0.0
2018-May-17 22:29N 37°58' E 023°30'0 0.0
2018-May-17 21:59N 37°58' E 023°30'0 0.0
2018-May-17 21:29N 37°58' E 023°30'0 0.0
2018-May-17 20:59N 37°58' E 023°30'0 0.0
2018-May-17 20:29N 37°58' E 023°30'0 0.0
2018-May-17 19:47N 37°58' E 023°30'0 0.0
2018-May-17 19:23N 37°58' E 023°30'0 0.0
2018-May-17 18:59N 37°58' E 023°30'0 0.0
2018-May-17 18:20N 37°58' E 023°30'0 0.0
2018-May-17 17:59N 37°58' E 023°30'0 0.0
2018-May-17 17:23N 37°58' E 023°30'0 0.0
2018-May-17 16:59N 37°58' E 023°30'0 0.0
2018-May-17 16:29N 37°58' E 023°30'0 0.0
2018-May-17 15:53N 37°58' E 023°30'0 0.0
2018-May-17 15:26N 37°58' E 023°30'0 0.0
2018-May-17 14:59N 37°58' E 023°30'0 0.0
2018-May-17 14:29N 37°58' E 023°30'0 0.0
2018-May-17 13:59N 37°58' E 023°30'0 0.0
2018-May-17 13:29N 37°58' E 023°30'0 0.0
2018-May-17 12:59N 37°58' E 023°30'0 0.0
2018-May-17 12:29N 37°58' E 023°30'0 0.0
2018-May-17 11:59N 37°58' E 023°30'0 0.0
2018-May-17 11:23N 37°58' E 023°30'0 0.0
2018-May-17 10:59N 37°58' E 023°30'0 0.0
2018-May-17 10:26N 37°58' E 023°30'0 0.0
2018-May-17 10:01N 37°58' E 023°30'0 0.0
2018-May-17 09:19N 37°58' E 023°30'0 0.0
2018-May-17 08:59N 37°58' E 023°30'0 0.0
2018-May-17 08:13N 37°58' E 023°30'0 0.0
2018-May-17 07:58N 37°58' E 023°30'0 0.0
2018-May-17 07:22N 37°58' E 023°30'0 0.0
2018-May-17 06:58N 37°58' E 023°30'0 0.0
2018-May-17 06:19N 37°58' E 023°30'0 0.0
2018-May-17 05:58N 37°58' E 023°30'0 0.0
2018-May-17 05:26N 37°58' E 023°30'0 0.0
2018-May-17 04:59N 37°58' E 023°30'0 0.0
2018-May-17 04:30N 37°58' E 023°30'0 0.0
2018-May-17 03:50N 37°58' E 023°30'0 0.0
2018-May-17 03:29N 37°58' E 023°30'0 0.0
2018-May-17 02:59N 37°58' E 023°30'0 0.0
2018-May-17 02:26N 37°58' E 023°30'0 0.0
2018-May-17 01:51N 37°58' E 023°30'0 0.0
2018-May-17 01:28N 37°58' E 023°30'0 0.0
2018-May-17 00:59N 37°58' E 023°30'0 0.0
2018-May-17 00:29N 37°58' E 023°30'0 0.0
2018-May-16 23:59N 37°58' E 023°30'0 0.0
2018-May-16 23:26N 37°58' E 023°30'0 0.0
2018-May-16 22:53N 37°58' E 023°30'0 0.0
2018-May-16 22:29N 37°58' E 023°30'0 0.0
2018-May-16 21:59N 37°58' E 023°30'0 0.0
2018-May-16 21:29N 37°58' E 023°30'0 0.0
2018-May-16 20:56N 37°58' E 023°30'0 0.0
2018-May-16 20:29N 37°58' E 023°30'0 0.0
2018-May-16 19:55N 37°58' E 023°30'0 0.0
2018-May-16 19:23N 37°58' E 023°30'0 0.0
2018-May-16 18:58N 37°58' E 023°30'0 0.0
2018-May-16 18:27N 37°58' E 023°30'0 0.0
2018-May-16 17:50N 37°58' E 023°30'0 0.0
2018-May-16 17:26N 37°58' E 023°30'0 0.0
2018-May-16 16:58N 37°58' E 023°30'0 0.0
2018-May-16 16:28N 37°58' E 023°30'0 0.0
2018-May-16 15:58N 37°58' E 023°30'  

Dump ship's entire track history